Time;durP1;ratioP1;P1;durP2;ratioP2;P2;SDS_P1;SDS_P2;PMS_P1;PMS_P2;Temp;Humidity;BMP_temperature;BMP_pressure;BME280_temperature;BME280_humidity;BME280_pressure;Samples;Min_cycle;Max_cycle;Signal;HPM_P1;HPM_P2
2022/03/15 00:01:22;;;;;;;20.02;10.13;;;3.50;99.90;;;;;;5051092;28;20044;-70
2022/03/15 00:03:48;;;;;;;27.55;13.30;;;3.60;99.90;;;;;;5052998;28;20128;-70
2022/03/15 00:06:14;;;;;;;20.63;12.85;;;3.60;99.90;;;;;;5051954;28;20486;-70
2022/03/15 00:08:40;;;;;;;23.38;11.00;;;3.60;99.90;;;;;;5051786;28;20037;-70
2022/03/15 00:11:07;;;;;;;12.55;8.63;;;3.70;99.90;;;;;;5035385;28;20041;-69
2022/03/15 00:13:37;;;;;;;16.88;7.90;;;3.70;99.90;;;;;;5051093;28;20041;-69
2022/03/15 00:16:04;;;;;;;14.57;7.23;;;3.60;99.90;;;;;;5035081;28;20037;-70
2022/03/15 00:18:30;;;;;;;15.82;7.80;;;3.50;99.90;;;;;;5053100;28;20033;-70
2022/03/15 00:21:04;;;;;;;14.23;8.05;;;3.30;99.90;;;;;;5052799;28;20076;-70
2022/03/15 00:23:31;;;;;;;19.10;8.48;;;3.20;99.90;;;;;;5052708;28;20107;-70
2022/03/15 00:26:00;;;;;;;21.48;9.65;;;3.00;99.90;;;;;;5051362;28;20125;-70
2022/03/15 00:28:26;;;;;;;32.58;14.55;;;3.00;99.90;;;;;;5052878;28;20055;-69
2022/03/15 00:30:52;;;;;;;31.92;12.27;;;2.90;99.90;;;;;;5049112;28;20084;-70
2022/03/15 00:33:20;;;;;;;29.52;12.18;;;3.00;99.90;;;;;;5034930;28;20048;-70
2022/03/15 00:35:47;;;;;;;25.08;14.45;;;2.90;99.90;;;;;;5051394;28;20520;-71
2022/03/15 00:38:13;;;;;;;26.77;14.05;;;2.90;99.90;;;;;;5051339;28;20052;-70
2022/03/15 00:40:40;;;;;;;31.80;17.02;;;3.00;99.90;;;;;;5051305;28;20055;-69
2022/03/15 00:43:06;;;;;;;36.28;16.63;;;3.10;99.90;;;;;;5051325;28;20052;-70
2022/03/15 00:45:32;;;;;;;39.35;17.02;;;3.20;99.90;;;;;;5034493;28;20086;-70
2022/03/15 00:47:58;;;;;;;29.92;15.80;;;3.40;99.90;;;;;;5084932;28;20044;-69
2022/03/15 00:50:32;;;;;;;38.55;15.73;;;3.40;99.90;;;;;;5084897;28;20056;-70
2022/03/15 00:52:59;;;;;;;32.78;17.33;;;3.40;99.90;;;;;;5051187;28;20560;-70
2022/03/15 00:55:26;;;;;;;37.95;18.08;;;3.50;99.90;;;;;;5051326;28;20045;-70
2022/03/15 00:57:52;;;;;;;36.78;18.50;;;3.60;99.90;;;;;;5051174;28;20064;-70
2022/03/15 01:00:18;;;;;;;42.08;20.27;;;3.60;99.90;;;;;;5065725;28;20041;-70
2022/03/15 01:02:44;;;;;;;35.97;18.15;;;3.70;99.90;;;;;;5052615;28;20122;-70
2022/03/15 01:05:10;;;;;;;38.92;19.35;;;3.80;99.90;;;;;;5084533;28;20076;-70
2022/03/15 01:07:37;;;;;;;34.42;20.38;;;3.80;99.90;;;;;;5084643;28;20045;-69
2022/03/15 01:10:03;;;;;;;31.92;18.48;;;3.90;99.90;;;;;;5052463;28;20044;-70
2022/03/15 01:12:29;;;;;;;35.45;18.98;;;4.00;99.90;;;;;;5084764;28;20080;-69
2022/03/15 01:14:54;;;;;;;37.55;20.40;;;4.00;99.90;;;;;;5052372;28;20157;-69
2022/03/15 01:17:20;;;;;;;39.90;21.15;;;4.10;99.90;;;;;;5051221;28;20041;-70
2022/03/15 01:19:46;;;;;;;42.13;21.65;;;4.20;99.90;;;;;;5051125;28;20409;-69
2022/03/15 01:22:12;;;;;;;38.95;21.17;;;4.30;99.90;;;;;;5052346;28;20427;-69
2022/03/15 01:24:39;;;;;;;38.75;20.67;;;4.40;99.90;;;;;;5054390;28;20053;-69
2022/03/15 01:27:05;;;;;;;36.95;20.63;;;4.50;99.90;;;;;;5056309;28;20033;-69
2022/03/15 01:29:31;;;;;;;43.25;19.40;;;4.50;99.90;;;;;;5056140;28;20412;-69
2022/03/15 01:31:59;;;;;;;31.27;18.73;;;4.60;99.90;;;;;;5086140;28;20043;-70
2022/03/15 01:34:25;;;;;;;34.85;19.55;;;4.60;99.90;;;;;;5056025;28;20187;-69
2022/03/15 01:36:52;;;;;;;32.50;18.60;;;4.60;99.90;;;;;;5088372;28;20044;-69
2022/03/15 01:39:17;;;;;;;34.22;19.15;;;4.70;99.90;;;;;;5056097;28;20043;-69
2022/03/15 01:41:45;;;;;;;34.50;17.95;;;4.70;99.90;;;;;;5071133;28;20036;-69
2022/03/15 01:44:18;;;;;;;37.40;18.02;;;4.80;99.90;;;;;;5048259;28;20379;-69
2022/03/15 01:46:47;;;;;;;37.15;19.02;;;4.90;99.90;;;;;;5035582;28;20069;-69
2022/03/15 01:49:13;;;;;;;35.17;18.67;;;4.90;99.90;;;;;;5035978;28;20091;-69
2022/03/15 01:51:40;;;;;;;29.77;16.63;;;5.00;99.90;;;;;;5035515;28;20037;-70
2022/03/15 01:54:08;;;;;;;30.70;17.30;;;5.00;99.90;;;;;;5035675;28;20056;-69
2022/03/15 01:56:34;;;;;;;31.08;17.02;;;5.10;99.90;;;;;;5035592;28;20048;-69
2022/03/15 01:59:00;;;;;;;36.30;18.55;;;5.10;99.90;;;;;;5036146;28;20034;-70
2022/03/15 02:01:26;;;;;;;31.77;17.75;;;5.20;99.90;;;;;;5031935;28;20045;-70
2022/03/15 02:03:52;;;;;;;38.70;18.15;;;5.20;99.90;;;;;;5035324;28;20128;-69
2022/03/15 02:06:18;;;;;;;30.35;16.60;;;5.20;99.90;;;;;;5034096;28;20052;-70
2022/03/15 02:08:43;;;;;;;29.95;15.40;;;5.20;99.90;;;;;;5067741;28;20040;-71
2022/03/15 02:11:09;;;;;;;25.75;15.88;;;5.20;99.90;;;;;;5035110;28;20120;-70
2022/03/15 02:13:35;;;;;;;33.10;16.45;;;5.30;99.90;;;;;;5017858;28;20041;-69
2022/03/15 02:16:01;;;;;;;28.05;16.65;;;5.30;99.90;;;;;;5033763;28;20464;-69
2022/03/15 02:18:28;;;;;;;25.80;15.27;;;5.30;99.90;;;;;;5034232;28;20042;-70
2022/03/15 02:20:54;;;;;;;32.33;16.75;;;5.30;99.90;;;;;;5034985;28;20140;-69
2022/03/15 02:23:20;;;;;;;26.98;15.25;;;5.30;99.90;;;;;;5034943;28;20053;-69
2022/03/15 02:25:46;;;;;;;27.83;15.07;;;5.40;99.90;;;;;;5035033;28;20041;-69
2022/03/15 02:28:12;;;;;;;33.47;16.75;;;5.40;99.90;;;;;;5033699;28;20041;-69
2022/03/15 02:30:38;;;;;;;27.73;17.10;;;5.40;99.90;;;;;;5064888;28;20044;-69
2022/03/15 02:33:04;;;;;;;34.45;15.73;;;5.40;99.90;;;;;;5034897;28;20394;-69
2022/03/15 02:35:30;;;;;;;23.70;15.65;;;5.50;99.90;;;;;;5032840;28;20481;-69
2022/03/15 02:37:56;;;;;;;34.30;16.83;;;5.50;99.90;;;;;;5034715;28;20056;-69
2022/03/15 02:40:22;;;;;;;34.25;18.05;;;5.50;99.90;;;;;;5050333;28;20060;-69
2022/03/15 02:42:48;;;;;;;29.63;15.30;;;5.60;99.90;;;;;;5034593;28;20041;-69
2022/03/15 02:45:14;;;;;;;24.35;15.60;;;5.60;99.90;;;;;;5033475;28;20057;-69
2022/03/15 02:47:42;;;;;;;26.92;14.95;;;5.60;99.90;;;;;;5034774;28;20039;-69
2022/03/15 02:50:08;;;;;;;29.25;15.18;;;5.60;99.90;;;;;;5033467;28;20048;-69
2022/03/15 02:52:34;;;;;;;26.02;15.85;;;5.60;99.90;;;;;;5033455;28;20041;-69
2022/03/15 02:55:01;;;;;;;22.83;14.85;;;5.70;99.90;;;;;;5034539;28;20469;-69
2022/03/15 02:57:28;;;;;;;22.08;14.93;;;5.60;99.90;;;;;;5033196;28;20037;-70
2022/03/15 02:59:55;;;;;;;26.15;15.27;;;5.60;99.90;;;;;;5033171;28;20059;-69
2022/03/15 03:02:22;;;;;;;28.00;14.73;;;5.60;99.90;;;;;;5047886;28;20084;-69
2022/03/15 03:04:50;;;;;;;22.30;14.15;;;5.60;99.90;;;;;;5033023;28;20068;-69
2022/03/15 03:07:17;;;;;;;24.65;15.23;;;5.70;99.90;;;;;;5034295;28;20405;-69
2022/03/15 03:09:43;;;;;;;25.15;14.55;;;5.70;99.90;;;;;;5066436;28;20397;-69
2022/03/15 03:12:09;;;;;;;28.05;14.77;;;5.70;99.90;;;;;;5034101;28;20045;-69
2022/03/15 03:14:35;;;;;;;26.58;16.15;;;5.70;99.90;;;;;;5033226;28;20107;-69
2022/03/15 03:17:01;;;;;;;24.45;14.43;;;5.70;99.90;;;;;;5033147;28;20416;-69
2022/03/15 03:19:27;;;;;;;26.38;15.48;;;5.60;99.90;;;;;;5034218;28;20112;-69
2022/03/15 03:21:53;;;;;;;29.80;14.57;;;5.60;99.90;;;;;;5034184;28;20038;-69
2022/03/15 03:24:23;;;;;;;27.25;16.58;;;5.60;99.90;;;;;;5033938;28;20045;-69
2022/03/15 03:26:49;;;;;;;24.00;14.88;;;5.70;99.90;;;;;;5033880;28;20037;-69
2022/03/15 03:29:15;;;;;;;27.52;16.20;;;5.60;99.90;;;;;;5032647;28;20048;-69
2022/03/15 03:31:42;;;;;;;28.00;16.60;;;5.60;99.90;;;;;;5031628;28;20038;-70
2022/03/15 03:34:09;;;;;;;26.08;15.55;;;5.60;99.90;;;;;;5033747;28;20053;-69
2022/03/15 03:36:36;;;;;;;26.17;16.35;;;5.60;99.90;;;;;;5065801;28;20528;-69
2022/03/15 03:39:03;;;;;;;27.83;16.02;;;5.60;99.90;;;;;;5049046;28;20076;-69
2022/03/15 03:41:29;;;;;;;33.13;16.23;;;5.60;99.90;;;;;;5032675;28;20367;-69
2022/03/15 03:43:55;;;;;;;28.85;16.52;;;5.60;99.90;;;;;;5038930;28;20048;-69
2022/03/15 03:46:21;;;;;;;25.33;16.05;;;5.60;99.90;;;;;;5052334;28;20033;-70
2022/03/15 03:48:48;;;;;;;23.90;15.82;;;5.60;99.90;;;;;;5068011;28;20044;-69
2022/03/15 03:51:15;;;;;;;27.92;15.75;;;5.50;99.90;;;;;;5085749;28;20071;-69
2022/03/15 03:53:41;;;;;;;24.70;15.70;;;5.50;99.90;;;;;;5053284;28;20493;-69
2022/03/15 03:56:07;;;;;;;27.52;17.52;;;5.50;99.90;;;;;;5085583;28;20076;-69
2022/03/15 03:58:34;;;;;;;26.23;17.13;;;5.40;99.90;;;;;;5053487;28;20039;-69
2022/03/15 04:01:01;;;;;;;40.00;18.08;;;5.40;99.90;;;;;;5051441;28;20033;-69
2022/03/15 04:03:31;;;;;;;37.40;18.48;;;5.40;99.90;;;;;;5053229;28;20079;-69
2022/03/15 04:05:57;;;;;;;32.35;17.85;;;5.40;99.90;;;;;;5085565;28;20052;-69
2022/03/15 04:08:24;;;;;;;32.88;18.50;;;5.40;99.90;;;;;;5051908;28;20075;-69
2022/03/15 04:10:50;;;;;;;33.03;19.17;;;5.40;99.90;;;;;;5053016;28;20041;-69
2022/03/15 04:13:20;;;;;;;28.10;16.63;;;5.50;99.90;;;;;;5053255;28;20044;-69
2022/03/15 04:15:47;;;;;;;36.88;20.20;;;5.50;99.90;;;;;;5051865;28;20043;-70
2022/03/15 04:18:13;;;;;;;28.17;18.33;;;5.40;99.90;;;;;;5053119;28;20048;-70
2022/03/15 04:20:40;;;;;;;36.78;19.27;;;5.40;99.90;;;;;;5051739;28;20057;-70
2022/03/15 04:23:06;;;;;;;33.00;19.35;;;5.40;99.90;;;;;;5052974;28;20052;-70
2022/03/15 04:25:32;;;;;;;37.75;18.48;;;5.40;99.90;;;;;;5051630;28;20442;-69
2022/03/15 04:28:00;;;;;;;25.95;16.80;;;5.40;99.90;;;;;;5051860;28;20075;-69
2022/03/15 04:30:30;;;;;;;30.85;18.48;;;5.40;99.90;;;;;;5050776;28;20041;-69
2022/03/15 04:32:58;;;;;;;30.80;18.13;;;5.30;99.90;;;;;;5052700;28;20033;-69
2022/03/15 04:35:24;;;;;;;32.03;18.02;;;5.30;99.90;;;;;;5053183;28;20048;-70
2022/03/15 04:37:54;;;;;;;34.00;18.55;;;5.20;99.90;;;;;;5051582;28;20794;-69
2022/03/15 04:40:20;;;;;;;29.83;19.38;;;5.20;99.90;;;;;;5052972;28;20040;-69
2022/03/15 04:42:48;;;;;;;29.83;17.73;;;5.10;99.90;;;;;;5051836;28;20114;-69
2022/03/15 04:45:15;;;;;;;33.60;19.65;;;5.10;99.90;;;;;;5052794;28;20040;-69
2022/03/15 04:47:41;;;;;;;36.80;20.27;;;5.10;99.90;;;;;;5051444;28;20656;-69
2022/03/15 04:50:08;;;;;;;38.85;21.30;;;5.10;99.90;;;;;;5052755;28;20037;-69
2022/03/15 04:52:34;;;;;;;38.55;19.52;;;5.20;99.90;;;;;;5051447;28;20515;-69
2022/03/15 04:55:04;;;;;;;39.90;19.98;;;5.20;99.90;;;;;;5034998;28;20048;-69
2022/03/15 04:57:30;;;;;;;32.40;18.83;;;5.20;99.90;;;;;;5051367;28;20084;-69
2022/03/15 04:59:55;;;;;;;37.38;19.38;;;5.20;99.90;;;;;;5054431;28;20084;-69
2022/03/15 05:02:23;;;;;;;41.20;20.90;;;5.10;99.90;;;;;;5036804;28;20638;-70
2022/03/15 05:04:49;;;;;;;36.58;20.20;;;5.10;99.90;;;;;;5055312;28;20048;-69
2022/03/15 05:07:15;;;;;;;35.55;20.40;;;5.10;99.90;;;;;;5038957;28;20036;-69
2022/03/15 05:11:06;;;;;;;33.70;20.70;;;5.10;99.90;;;;;;5038848;28;20053;-69
2022/03/15 05:12:27;;;;;;;36.42;19.52;;;5.10;99.90;;;;;;5056434;28;20045;-69
2022/03/15 05:14:53;;;;;;;32.35;19.70;;;5.10;99.90;;;;;;5054965;28;20048;-69
2022/03/15 05:17:19;;;;;;;38.90;20.15;;;5.10;99.90;;;;;;5055157;28;20049;-69
2022/03/15 05:19:46;;;;;;;37.90;20.05;;;5.00;99.90;;;;;;5056161;28;20072;-69
2022/03/15 05:22:12;;;;;;;35.50;20.55;;;5.10;99.90;;;;;;5056514;28;20084;-69
2022/03/15 05:24:38;;;;;;;33.40;18.88;;;5.00;99.90;;;;;;5054760;28;20087;-69
2022/03/15 05:27:04;;;;;;;36.30;20.70;;;5.00;99.90;;;;;;5054904;28;20041;-69
2022/03/15 05:29:30;;;;;;;37.58;20.50;;;5.00;99.90;;;;;;5055070;28;20033;-69
2022/03/15 05:31:55;;;;;;;40.60;21.38;;;5.00;99.90;;;;;;5053973;28;20037;-70
2022/03/15 05:34:21;;;;;;;36.05;20.63;;;5.00;99.90;;;;;;5054627;28;20118;-70
2022/03/15 05:36:48;;;;;;;37.75;19.33;;;5.00;99.90;;;;;;5038433;28;20041;-70
2022/03/15 05:39:14;;;;;;;41.13;22.30;;;5.10;99.90;;;;;;5055617;28;20041;-70
2022/03/15 05:41:40;;;;;;;39.97;21.35;;;5.10;99.90;;;;;;5056076;28;20095;-69
2022/03/15 05:44:07;;;;;;;40.08;21.08;;;5.10;99.90;;;;;;5054437;28;20035;-69
2022/03/15 05:46:33;;;;;;;34.58;19.25;;;5.10;99.90;;;;;;5088364;28;20049;-69
2022/03/15 05:48:58;;;;;;;36.45;19.75;;;5.10;99.90;;;;;;5055661;28;20041;-69
2022/03/15 05:51:24;;;;;;;37.67;20.60;;;5.10;99.90;;;;;;5087955;28;20047;-69
2022/03/15 05:53:50;;;;;;;40.50;22.50;;;5.10;99.90;;;;;;5037880;28;20037;-69
2022/03/15 05:56:16;;;;;;;37.35;20.75;;;5.10;99.90;;;;;;5054406;28;20037;-69
2022/03/15 05:58:43;;;;;;;34.53;20.30;;;5.10;99.90;;;;;;5055588;28;20033;-69
2022/03/15 06:01:09;;;;;;;36.10;21.17;;;5.10;99.90;;;;;;5086152;28;20040;-69
2022/03/15 06:03:35;;;;;;;43.53;21.15;;;5.20;99.90;;;;;;5055428;28;20041;-69
2022/03/15 06:06:01;;;;;;;40.17;22.13;;;5.10;99.90;;;;;;5087763;28;20507;-69
2022/03/15 06:08:27;;;;;;;42.17;22.00;;;5.20;99.90;;;;;;5087768;28;20040;-69
2022/03/15 06:10:52;;;;;;;44.28;23.67;;;5.20;99.90;;;;;;5086619;28;20402;-69
2022/03/15 06:13:18;;;;;;;41.42;21.50;;;5.20;99.90;;;;;;5055319;28;20045;-69
2022/03/15 06:15:44;;;;;;;39.17;21.63;;;5.20;99.90;;;;;;5055284;28;20044;-69
2022/03/15 06:18:10;;;;;;;40.28;20.33;;;5.20;99.90;;;;;;5055238;28;20381;-69
2022/03/15 06:20:36;;;;;;;43.95;21.92;;;5.20;99.90;;;;;;5053692;28;20477;-69
2022/03/15 06:23:02;;;;;;;46.53;24.52;;;5.20;99.90;;;;;;5037322;28;20057;-69
2022/03/15 06:25:30;;;;;;;40.72;21.67;;;5.20;99.90;;;;;;5070391;28;20548;-69
2022/03/15 06:27:56;;;;;;;42.88;22.63;;;5.20;99.90;;;;;;5055502;28;20076;-69
2022/03/15 06:30:24;;;;;;;39.55;20.98;;;5.30;99.90;;;;;;5053320;28;20448;-69
2022/03/15 06:32:50;;;;;;;38.85;22.67;;;5.30;99.90;;;;;;5087458;28;20090;-69
2022/03/15 06:35:16;;;;;;;41.30;23.27;;;5.30;99.90;;;;;;5070541;28;20036;-70
2022/03/15 06:37:46;;;;;;;33.35;20.98;;;5.40;99.90;;;;;;5087555;28;20370;-69
2022/03/15 06:40:14;;;;;;;38.55;21.90;;;5.40;99.90;;;;;;5053668;28;20045;-70
2022/03/15 06:42:40;;;;;;;42.30;22.45;;;5.40;99.90;;;;;;5087271;28;20041;-69
2022/03/15 06:45:07;;;;;;;38.03;21.17;;;5.40;99.90;;;;;;5039701;28;20043;-69
2022/03/15 06:47:35;;;;;;;42.65;20.70;;;5.40;99.90;;;;;;5030728;28;20038;-69
2022/03/15 06:50:01;;;;;;;40.67;21.38;;;5.50;99.90;;;;;;5034717;28;20041;-69
2022/03/15 06:52:27;;;;;;;39.28;21.42;;;5.50;99.90;;;;;;5034920;28;20037;-69
2022/03/15 06:54:52;;;;;;;42.95;22.05;;;5.50;99.90;;;;;;5035832;28;20498;-68
2022/03/15 06:57:18;;;;;;;42.22;23.17;;;5.60;99.90;;;;;;5033650;28;20493;-69
2022/03/15 06:59:44;;;;;;;46.95;24.60;;;5.60;99.90;;;;;;5035109;28;20046;-69
2022/03/15 07:02:11;;;;;;;48.00;26.17;;;5.70;99.90;;;;;;5033568;28;20041;-69
2022/03/15 07:04:40;;;;;;;49.78;25.92;;;5.70;99.90;;;;;;5033499;28;20053;-68
2022/03/15 07:07:06;;;;;;;47.30;25.48;;;5.80;99.90;;;;;;5064081;28;20033;-70
2022/03/15 07:09:32;;;;;;;48.10;25.67;;;5.80;99.90;;;;;;5066551;28;20045;-71
2022/03/15 07:11:58;;;;;;;50.60;25.05;;;5.90;99.90;;;;;;5033176;28;20080;-70
2022/03/15 07:14:24;;;;;;;43.75;24.88;;;5.90;99.90;;;;;;5034291;28;20077;-69
2022/03/15 07:16:50;;;;;;;48.70;25.33;;;6.00;99.90;;;;;;5034045;28;20069;-69
2022/03/15 07:19:16;;;;;;;47.00;25.73;;;6.00;99.90;;;;;;5034257;28;20065;-71
2022/03/15 07:21:41;;;;;;;52.78;27.02;;;6.10;99.90;;;;;;5032507;28;20064;-68
2022/03/15 07:24:07;;;;;;;44.92;27.83;;;6.10;99.90;;;;;;5032908;28;20148;-69
2022/03/15 07:26:35;;;;;;;50.22;28.98;;;6.10;99.90;;;;;;5033702;28;20391;-69
2022/03/15 07:29:02;;;;;;;54.38;28.48;;;6.20;99.90;;;;;;5033935;28;20039;-69
2022/03/15 07:31:30;;;;;;;47.70;29.13;;;6.20;99.90;;;;;;5032988;28;20049;-69
2022/03/15 07:33:56;;;;;;;54.50;28.55;;;6.30;99.90;;;;;;5032976;28;20394;-70
2022/03/15 07:36:22;;;;;;;52.28;28.77;;;6.40;99.90;;;;;;5032648;28;20056;-70
2022/03/15 07:38:51;;;;;;;51.85;28.20;;;6.40;99.90;;;;;;5034197;28;20413;-70
2022/03/15 07:41:21;;;;;;;45.88;27.83;;;6.40;99.90;;;;;;5032358;28;20120;-70
2022/03/15 07:43:48;;;;;;;48.58;29.75;;;6.50;99.90;;;;;;5033884;28;20449;-70
2022/03/15 07:46:13;;;;;;;50.50;28.08;;;6.50;99.90;;;;;;5033717;28;20114;-70
2022/03/15 07:48:39;;;;;;;48.63;28.38;;;6.50;99.90;;;;;;5033900;28;20511;-70
2022/03/15 07:51:05;;;;;;;49.55;28.42;;;6.50;99.90;;;;;;5033660;28;20053;-70
2022/03/15 07:53:31;;;;;;;55.92;30.27;;;6.60;99.90;;;;;;5065594;28;20038;-69
2022/03/15 07:56:00;;;;;;;46.85;28.45;;;6.70;99.90;;;;;;5065809;28;20144;-70
2022/03/15 07:58:27;;;;;;;54.03;30.92;;;6.80;99.90;;;;;;5049344;28;20123;-70
2022/03/15 08:00:56;;;;;;;54.75;31.20;;;6.80;99.90;;;;;;5064198;28;20124;-70
2022/03/15 08:03:24;;;;;;;44.25;27.95;;;6.90;99.90;;;;;;5032267;28;20128;-69
2022/03/15 08:05:50;;;;;;;47.00;28.80;;;6.90;99.90;;;;;;5033258;28;20535;-69
2022/03/15 08:08:16;;;;;;;46.33;27.80;;;7.00;99.90;;;;;;5065618;28;20037;-70
2022/03/15 08:10:43;;;;;;;44.80;28.90;;;7.00;99.90;;;;;;5033310;28;20040;-70
2022/03/15 08:13:09;;;;;;;47.25;30.27;;;7.10;99.90;;;;;;5032281;28;20048;-69
2022/03/15 08:15:35;;;;;;;43.00;27.35;;;7.10;99.90;;;;;;5083906;28;20124;-69
2022/03/15 08:18:05;;;;;;;49.55;29.80;;;7.20;99.90;;;;;;5053461;28;20116;-70
2022/03/15 08:20:34;;;;;;;48.95;28.38;;;7.20;99.90;;;;;;5052759;28;20056;-70
2022/03/15 08:23:01;;;;;;;47.33;28.83;;;7.20;99.90;;;;;;5052937;28;20492;-70
2022/03/15 08:25:26;;;;;;;50.40;29.17;;;7.30;99.90;;;;;;5052542;28;20151;-70
2022/03/15 08:27:53;;;;;;;42.60;27.05;;;7.30;99.90;;;;;;5035090;28;20156;-70
2022/03/15 08:30:25;;;;;;;44.80;27.98;;;7.30;99.90;;;;;;5052202;28;20370;-71
2022/03/15 08:32:51;;;;;;;47.70;27.48;;;7.30;99.90;;;;;;5053011;28;20043;-70
2022/03/15 08:35:17;;;;;;;47.58;27.98;;;7.30;99.90;;;;;;5052532;28;20044;-69
2022/03/15 08:37:43;;;;;;;45.03;26.35;;;7.30;99.90;;;;;;5051959;28;20045;-69
2022/03/15 08:40:09;;;;;;;46.08;27.70;;;7.30;99.90;;;;;;5052985;28;20408;-70
2022/03/15 08:42:35;;;;;;;42.30;27.17;;;7.40;99.90;;;;;;5052978;28;20037;-70
2022/03/15 08:45:01;;;;;;;41.45;26.23;;;7.40;99.90;;;;;;5051646;28;20044;-69
2022/03/15 08:47:28;;;;;;;45.22;27.67;;;7.40;99.90;;;;;;5052952;28;20047;-70
2022/03/15 08:49:55;;;;;;;43.28;27.15;;;7.50;99.90;;;;;;5034643;28;20465;-70
2022/03/15 08:52:21;;;;;;;41.75;26.80;;;7.50;99.90;;;;;;5051276;28;20040;-69
2022/03/15 08:54:46;;;;;;;38.33;26.02;;;7.60;99.90;;;;;;5052828;28;20048;-70
2022/03/15 08:57:14;;;;;;;38.33;25.92;;;7.60;99.90;;;;;;5051683;28;20395;-70
2022/03/15 08:59:40;;;;;;;37.38;25.70;;;7.60;99.90;;;;;;5051546;28;20385;-70
2022/03/15 09:02:09;;;;;;;42.17;26.58;;;7.70;99.90;;;;;;5051156;28;20040;-70
2022/03/15 09:04:34;;;;;;;41.38;26.27;;;7.70;99.90;;;;;;5048838;28;20131;-70
2022/03/15 09:07:00;;;;;;;43.75;26.27;;;7.80;99.90;;;;;;5050967;28;20041;-71
2022/03/15 09:09:27;;;;;;;45.10;26.67;;;7.80;99.90;;;;;;5048208;28;20128;-71
2022/03/15 09:11:53;;;;;;;36.92;24.88;;;7.90;99.90;;;;;;5052144;28;20044;-71
2022/03/15 09:14:18;;;;;;;38.03;25.70;;;7.90;99.90;;;;;;5052560;28;20049;-71
2022/03/15 09:16:44;;;;;;;38.30;25.58;;;7.90;99.90;;;;;;5051966;28;20048;-71
2022/03/15 09:19:11;;;;;;;36.00;25.20;;;7.90;99.90;;;;;;5050138;28;20037;-73
2022/03/15 09:21:37;;;;;;;39.50;24.35;;;8.00;99.90;;;;;;5049815;28;20110;-72
2022/03/15 09:24:04;;;;;;;36.25;23.20;;;8.10;99.90;;;;;;5053670;28;20041;-69
2022/03/15 09:26:30;;;;;;;40.00;25.20;;;8.10;99.90;;;;;;5051330;28;20041;-74
2022/03/15 09:28:56;;;;;;;37.22;26.13;;;8.10;99.90;;;;;;5054350;28;20051;-71
2022/03/15 09:31:22;;;;;;;41.15;26.02;;;8.20;99.90;;;;;;5051170;28;20119;-72
2022/03/15 09:33:47;;;;;;;33.97;24.70;;;8.20;99.90;;;;;;5052491;28;20378;-73
2022/03/15 09:36:15;;;;;;;39.50;24.25;;;8.20;99.90;;;;;;5050924;28;20144;-72
2022/03/15 09:38:42;;;;;;;41.10;24.40;;;8.20;99.90;;;;;;5052738;28;20044;-72
2022/03/15 09:41:08;;;;;;;38.30;23.65;;;8.20;99.90;;;;;;5051358;28;20045;-70
2022/03/15 09:43:37;;;;;;;38.28;24.05;;;8.20;99.90;;;;;;5051076;28;20115;-74
2022/03/15 09:46:05;;;;;;;35.60;23.42;;;8.20;99.90;;;;;;5087320;28;20129;-74
2022/03/15 09:48:31;;;;;;;39.83;23.88;;;8.20;99.90;;;;;;5055673;28;20486;-74
2022/03/15 09:50:57;;;;;;;37.25;21.67;;;8.20;99.90;;;;;;5055561;28;20037;-72
2022/03/15 09:53:23;;;;;;;34.85;24.02;;;8.20;99.90;;;;;;5056750;28;20043;-72
2022/03/15 09:55:49;;;;;;;34.72;24.55;;;8.20;99.90;;;;;;5087835;28;20045;-72
2022/03/15 09:58:19;;;;;;;38.13;22.55;;;8.20;99.90;;;;;;5054143;28;20047;-72
2022/03/15 10:00:51;;;;;;;40.00;26.75;;;8.20;99.90;;;;;;5085986;28;20055;-72
2022/03/15 10:03:17;;;;;;;33.30;23.17;;;8.30;99.90;;;;;;5054863;28;20449;-72
2022/03/15 10:05:44;;;;;;;43.97;27.58;;;8.30;99.90;;;;;;5037283;28;20483;-72
2022/03/15 10:08:12;;;;;;;38.75;27.65;;;8.40;99.90;;;;;;5054006;28;20083;-72
2022/03/15 10:10:38;;;;;;;39.25;27.17;;;8.50;99.90;;;;;;5055105;28;20036;-72
2022/03/15 10:13:04;;;;;;;43.70;27.92;;;8.50;99.90;;;;;;5055143;28;20040;-72
2022/03/15 10:15:29;;;;;;;37.78;27.13;;;8.60;99.90;;;;;;5055191;28;20041;-72
2022/03/15 10:18:04;;;;;;;39.90;25.80;;;8.70;99.90;;;;;;5037030;28;20542;-72
2022/03/15 10:20:37;;;;;;;38.63;25.85;;;8.70;99.90;;;;;;5053775;28;20463;-73
2022/03/15 10:23:03;;;;;;;38.67;26.30;;;8.80;99.90;;;;;;5053546;28;20045;-73
2022/03/15 10:25:31;;;;;;;40.67;26.50;;;9.00;99.90;;;;;;5054821;28;20049;-73
2022/03/15 10:27:59;;;;;;;34.40;23.27;;;9.40;99.90;;;;;;5054648;28;20043;-73
2022/03/15 10:30:27;;;;;;;33.72;23.42;;;9.60;99.90;;;;;;5053259;28;20036;-73
2022/03/15 10:32:54;;;;;;;31.20;23.02;;;9.90;99.90;;;;;;5053664;28;20119;-73
2022/03/15 10:35:22;;;;;;;34.72;23.48;;;10.30;99.90;;;;;;5056044;28;20090;-74
2022/03/15 10:37:48;;;;;;;31.02;21.70;;;10.40;99.90;;;;;;5053751;28;20045;-74
2022/03/15 10:40:16;;;;;;;33.60;23.25;;;10.40;99.90;;;;;;5053306;28;20045;-74
2022/03/15 10:42:43;;;;;;;32.38;23.15;;;10.30;99.90;;;;;;5053648;28;20393;-74
2022/03/15 10:45:22;;;;;;;31.45;22.77;;;10.20;99.90;;;;;;5053164;28;20104;-74
2022/03/15 10:47:54;;;;;;;33.55;21.92;;;10.20;99.90;;;;;;5054837;28;20466;-72
2022/03/15 10:50:24;;;;;;;36.83;23.35;;;10.10;99.90;;;;;;5053383;28;20033;-73
2022/03/15 10:52:51;;;;;;;27.40;21.10;;;10.00;99.90;;;;;;5054562;28;20439;-75
2022/03/15 10:55:18;;;;;;;33.65;23.33;;;9.90;99.90;;;;;;5059518;28;20116;-73
2022/03/15 10:57:48;;;;;;;32.97;23.63;;;9.80;99.90;;;;;;5052523;28;20056;-73
2022/03/15 11:00:16;;;;;;;30.27;22.60;;;9.80;99.90;;;;;;5086765;28;20060;-73
2022/03/15 11:02:45;;;;;;;30.20;23.30;;;9.80;99.90;;;;;;5052215;28;20116;-73
2022/03/15 11:05:11;;;;;;;31.43;21.70;;;9.80;99.90;;;;;;5086647;28;20109;-73
2022/03/15 11:07:42;;;;;;;29.42;22.17;;;9.80;99.90;;;;;;5054370;28;20264;-73
2022/03/15 11:10:14;;;;;;;33.80;23.42;;;9.80;99.90;;;;;;5086454;28;20123;-73
2022/03/15 11:12:58;;;;;;;32.10;21.42;;;9.80;99.90;;;;;;5054155;28;20433;-73
2022/03/15 11:15:30;;;;;;;26.85;21.05;;;9.90;99.90;;;;;;5086484;28;20040;-73
2022/03/15 11:18:16;;;;;;;29.90;22.40;;;9.90;99.90;;;;;;5052715;28;20098;-73
2022/03/15 11:20:43;;;;;;;25.77;19.88;;;10.00;99.90;;;;;;5052540;28;20071;-73
2022/03/15 11:23:12;;;;;;;33.22;21.20;;;10.00;99.90;;;;;;5053984;28;20056;-73
2022/03/15 11:25:48;;;;;;;29.83;21.45;;;10.10;99.90;;;;;;5052618;28;20037;-73
2022/03/15 11:28:19;;;;;;;26.25;20.65;;;10.20;99.90;;;;;;5086066;28;20041;-73
2022/03/15 11:30:45;;;;;;;28.15;19.45;;;10.30;99.90;;;;;;5051638;28;20083;-74
2022/03/15 11:33:12;;;;;;;26.70;19.55;;;10.40;99.90;;;;;;5052459;28;20481;-73
2022/03/15 11:35:40;;;;;;;30.25;19.85;;;10.50;99.90;;;;;;5053853;28;20041;-74
2022/03/15 11:38:09;;;;;;;25.05;18.23;;;10.50;99.90;;;;;;5053659;28;20051;-73
2022/03/15 11:40:36;;;;;;;24.17;17.08;;;10.50;99.90;;;;;;5053803;28;20045;-73
2022/03/15 11:43:37;;;;;;;23.42;17.17;;;10.60;99.90;;;;;;5052362;28;20524;-73
2022/03/15 11:46:40;;;;;;;21.50;15.68;;;10.60;99.90;;;;;;5033082;28;20497;-74
2022/03/15 11:49:42;;;;;;;23.02;16.63;;;10.60;99.90;;;;;;5010497;28;20124;-73
2022/03/15 11:52:32;;;;;;;26.08;17.55;;;10.60;99.90;;;;;;5033418;28;20046;-74
2022/03/15 11:55:04;;;;;;;26.52;17.38;;;10.60;99.90;;;;;;5033579;28;20051;-74
2022/03/15 11:58:01;;;;;;;25.10;17.55;;;10.60;99.90;;;;;;5033495;28;20057;-73
2022/03/15 12:00:46;;;;;;;26.25;18.50;;;10.60;99.90;;;;;;5029737;28;20061;-73
2022/03/15 12:03:18;;;;;;;27.42;18.30;;;10.60;99.90;;;;;;5033339;28;20489;-73
2022/03/15 12:05:48;;;;;;;26.45;18.65;;;10.60;99.90;;;;;;5031966;28;20375;-74
2022/03/15 12:08:23;;;;;;;26.77;19.08;;;10.50;99.90;;;;;;5031367;28;20037;-73
2022/03/15 12:11:01;;;;;;;27.42;19.02;;;10.50;99.90;;;;;;5031798;28;20103;-74
2022/03/15 12:13:43;;;;;;;29.48;18.88;;;10.50;99.90;;;;;;5034322;28;20065;-73
2022/03/15 12:16:21;;;;;;;26.38;18.02;;;10.60;99.90;;;;;;5034172;28;20508;-74
2022/03/15 12:18:53;;;;;;;28.33;17.33;;;10.70;99.90;;;;;;5032077;28;20559;-74
2022/03/15 12:21:25;;;;;;;24.48;19.10;;;10.70;99.90;;;;;;5031854;28;20543;-74
2022/03/15 12:23:54;;;;;;;38.88;22.00;;;10.70;99.90;;;;;;5031956;28;20041;-74
2022/03/15 12:26:25;;;;;;;30.98;18.27;;;10.70;99.90;;;;;;5031700;28;20041;-74
2022/03/15 12:29:04;;;;;;;21.02;15.57;;;10.70;99.90;;;;;;5025893;28;20069;-74
2022/03/15 12:31:42;;;;;;;22.92;15.30;;;10.80;99.90;;;;;;5049204;28;20049;-74
2022/03/15 12:34:16;;;;;;;22.88;15.75;;;10.80;99.90;;;;;;5051405;28;20073;-74
2022/03/15 12:37:00;;;;;;;24.50;16.38;;;10.90;99.90;;;;;;5051746;28;20040;-74
2022/03/15 12:39:32;;;;;;;24.42;15.90;;;10.90;99.90;;;;;;5051369;28;20051;-73